Main page
METAR-TAF:

METAR-TAF

Airports :

Osijek Airport

Osijek, Croatia

latitude: 45-27N, longitude: 018-48E, elevation: 88 m

Current weather observation

The report was made 18 minutes ago, at 09:30 UTC
Wind 9 kt from the East/Northeast
Temperature 5°C
Humidity 60%
Pressure 1030 hPa
Visibility 10 km or more
no clouds below 1500 m and no cumulonimbus

METAR: LDOS 170930Z 06009KT CAVOK 05/M02 Q1030

Time: 10:48 (09:48 UTC)

Forecast

The report was made 4 hours and 23 minutes ago, at 05:25 UTC
Forecast valid from 17 at 06 UTC to 18 at 06 UTC
Wind 8 kt from the East/Northeast
Visibility 10 km or more
no clouds below 1500 m and no cumulonimbus

TAF: LDOS 170525Z 1706/1806 07008KT CAVOK TX07/1712Z TNM02/1706Z

Weather observations and forecasts of more than 4000 airports (METAR and TAF reports).

The available stations are represented by yellow and red dots on the map.

Hover mouse over dot to see the name of the station.

Then click to see weather observations and forecasts.

To change the map : click on the green buttons with a black cross to zoom in, on the green button with a dash to zoom out, or on the green arrows for adjacent maps.


METAR-TAF: